sensor_id;sensor_type;location;lat;lon;timestamp;P1;durP1;ratioP1;P2;durP2;ratioP2
36105;SDS011;22159;55.736;38.048;2023-03-23T00:00:29;1.30;;;1.05;;
36105;SDS011;22159;55.736;38.048;2023-03-23T00:02:55;1.40;;;1.17;;
36105;SDS011;22159;55.736;38.048;2023-03-23T00:05:21;3.42;;;1.30;;
36105;SDS011;22159;55.736;38.048;2023-03-23T00:07:47;1.58;;;1.20;;
36105;SDS011;22159;55.736;38.048;2023-03-23T00:10:17;1.75;;;1.30;;
36105;SDS011;22159;55.736;38.048;2023-03-23T00:12:43;2.03;;;1.05;;
36105;SDS011;22159;55.736;38.048;2023-03-23T00:15:10;1.42;;;1.20;;
36105;SDS011;22159;55.736;38.048;2023-03-23T00:17:38;1.75;;;1.23;;
36105;SDS011;22159;55.736;38.048;2023-03-23T00:20:04;1.40;;;1.30;;
36105;SDS011;22159;55.736;38.048;2023-03-23T00:22:30;2.22;;;1.20;;
36105;SDS011;22159;55.736;38.048;2023-03-23T00:25:02;2.35;;;1.20;;
36105;SDS011;22159;55.736;38.048;2023-03-23T00:27:28;1.45;;;1.10;;
36105;SDS011;22159;55.736;38.048;2023-03-23T00:29:54;1.38;;;1.10;;
36105;SDS011;22159;55.736;38.048;2023-03-23T00:32:22;1.48;;;1.33;;
36105;SDS011;22159;55.736;38.048;2023-03-23T00:34:52;1.35;;;1.10;;
36105;SDS011;22159;55.736;38.048;2023-03-23T00:37:18;1.38;;;1.17;;
36105;SDS011;22159;55.736;38.048;2023-03-23T00:39:44;1.83;;;0.90;;
36105;SDS011;22159;55.736;38.048;2023-03-23T00:42:12;1.63;;;1.20;;
36105;SDS011;22159;55.736;38.048;2023-03-23T00:44:38;1.80;;;1.20;;
36105;SDS011;22159;55.736;38.048;2023-03-23T00:47:05;1.52;;;1.00;;
36105;SDS011;22159;55.736;38.048;2023-03-23T00:49:33;1.95;;;0.95;;
36105;SDS011;22159;55.736;38.048;2023-03-23T00:52:00;1.27;;;0.90;;
36105;SDS011;22159;55.736;38.048;2023-03-23T00:54:26;1.60;;;1.05;;
36105;SDS011;22159;55.736;38.048;2023-03-23T00:56:52;1.10;;;1.00;;
36105;SDS011;22159;55.736;38.048;2023-03-23T00:59:19;1.38;;;1.10;;
36105;SDS011;22159;55.736;38.048;2023-03-23T01:01:45;1.58;;;1.00;;
36105;SDS011;22159;55.736;38.048;2023-03-23T01:04:11;2.15;;;1.05;;
36105;SDS011;22159;55.736;38.048;2023-03-23T01:06:38;0.90;;;0.80;;
36105;SDS011;22159;55.736;38.048;2023-03-23T01:09:08;1.52;;;1.00;;
36105;SDS011;22159;55.736;38.048;2023-03-23T01:11:35;1.38;;;0.85;;
36105;SDS011;22159;55.736;38.048;2023-03-23T01:14:02;2.53;;;0.98;;
36105;SDS011;22159;55.736;38.048;2023-03-23T01:16:28;1.75;;;1.00;;
36105;SDS011;22159;55.736;38.048;2023-03-23T01:18:54;1.85;;;0.90;;
36105;SDS011;22159;55.736;38.048;2023-03-23T01:21:21;2.80;;;1.23;;
36105;SDS011;22159;55.736;38.048;2023-03-23T01:23:47;1.20;;;1.00;;
36105;SDS011;22159;55.736;38.048;2023-03-23T01:26:18;1.30;;;1.00;;
36105;SDS011;22159;55.736;38.048;2023-03-23T01:31:12;1.20;;;0.95;;
36105;SDS011;22159;55.736;38.048;2023-03-23T01:33:38;1.73;;;1.08;;
36105;SDS011;22159;55.736;38.048;2023-03-23T01:36:05;1.40;;;1.08;;
36105;SDS011;22159;55.736;38.048;2023-03-23T01:38:32;0.90;;;0.80;;
36105;SDS011;22159;55.736;38.048;2023-03-23T01:40:58;1.23;;;0.98;;
36105;SDS011;22159;55.736;38.048;2023-03-23T01:43:24;1.25;;;0.98;;
36105;SDS011;22159;55.736;38.048;2023-03-23T01:45:50;0.75;;;0.75;;
36105;SDS011;22159;55.736;38.048;2023-03-23T01:48:18;1.45;;;1.23;;
36105;SDS011;22159;55.736;38.048;2023-03-23T01:50:57;1.10;;;0.98;;
36105;SDS011;22159;55.736;38.048;2023-03-23T01:53:24;2.03;;;0.98;;
36105;SDS011;22159;55.736;38.048;2023-03-23T01:55:52;1.30;;;1.20;;
36105;SDS011;22159;55.736;38.048;2023-03-23T01:58:23;0.73;;;0.73;;
36105;SDS011;22159;55.736;38.048;2023-03-23T02:00:52;1.05;;;0.80;;
36105;SDS011;22159;55.736;38.048;2023-03-23T02:03:19;1.15;;;1.00;;
36105;SDS011;22159;55.736;38.048;2023-03-23T02:05:45;1.15;;;0.93;;
36105;SDS011;22159;55.736;38.048;2023-03-23T02:08:11;1.02;;;0.80;;
36105;SDS011;22159;55.736;38.048;2023-03-23T02:10:39;2.17;;;1.10;;
36105;SDS011;22159;55.736;38.048;2023-03-23T02:13:06;1.48;;;1.23;;
36105;SDS011;22159;55.736;38.048;2023-03-23T02:15:36;1.33;;;0.80;;
36105;SDS011;22159;55.736;38.048;2023-03-23T02:23:13;1.10;;;0.85;;
36105;SDS011;22159;55.736;38.048;2023-03-23T02:33:38;3.05;;;1.00;;
36105;SDS011;22159;55.736;38.048;2023-03-23T02:36:50;1.27;;;1.02;;
36105;SDS011;22159;55.736;38.048;2023-03-23T02:41:21;1.95;;;1.10;;
36105;SDS011;22159;55.736;38.048;2023-03-23T02:43:48;2.38;;;1.20;;
36105;SDS011;22159;55.736;38.048;2023-03-23T02:46:15;1.80;;;1.00;;
36105;SDS011;22159;55.736;38.048;2023-03-23T02:48:41;2.08;;;1.10;;
36105;SDS011;22159;55.736;38.048;2023-03-23T02:51:09;1.27;;;0.95;;
36105;SDS011;22159;55.736;38.048;2023-03-23T02:53:36;1.08;;;0.90;;
36105;SDS011;22159;55.736;38.048;2023-03-23T02:56:03;1.70;;;0.90;;
36105;SDS011;22159;55.736;38.048;2023-03-23T02:58:30;1.55;;;1.20;;
36105;SDS011;22159;55.736;38.048;2023-03-23T03:00:56;1.58;;;1.00;;
36105;SDS011;22159;55.736;38.048;2023-03-23T03:03:25;1.98;;;1.10;;
36105;SDS011;22159;55.736;38.048;2023-03-23T03:18:28;1.73;;;0.95;;
36105;SDS011;22159;55.736;38.048;2023-03-23T03:20:58;1.80;;;1.13;;
36105;SDS011;22159;55.736;38.048;2023-03-23T03:23:26;3.00;;;1.08;;
36105;SDS011;22159;55.736;38.048;2023-03-23T03:25:53;1.73;;;1.15;;
36105;SDS011;22159;55.736;38.048;2023-03-23T03:28:22;1.88;;;1.08;;
36105;SDS011;22159;55.736;38.048;2023-03-23T03:30:51;2.08;;;0.80;;
36105;SDS011;22159;55.736;38.048;2023-03-23T03:33:19;8.63;;;2.13;;
36105;SDS011;22159;55.736;38.048;2023-03-23T03:35:45;7.72;;;2.42;;
36105;SDS011;22159;55.736;38.048;2023-03-23T03:38:12;5.95;;;2.45;;
36105;SDS011;22159;55.736;38.048;2023-03-23T03:40:38;8.30;;;2.45;;
36105;SDS011;22159;55.736;38.048;2023-03-23T03:43:04;7.80;;;2.40;;
36105;SDS011;22159;55.736;38.048;2023-03-23T03:45:31;6.55;;;1.98;;
36105;SDS011;22159;55.736;38.048;2023-03-23T03:47:58;4.35;;;1.95;;
36105;SDS011;22159;55.736;38.048;2023-03-23T03:50:25;6.63;;;2.03;;
36105;SDS011;22159;55.736;38.048;2023-03-23T03:52:51;5.50;;;2.35;;
36105;SDS011;22159;55.736;38.048;2023-03-23T03:55:17;6.72;;;2.28;;
36105;SDS011;22159;55.736;38.048;2023-03-23T03:57:43;4.65;;;1.80;;
36105;SDS011;22159;55.736;38.048;2023-03-23T04:00:10;7.72;;;3.25;;
36105;SDS011;22159;55.736;38.048;2023-03-23T04:02:47;8.00;;;4.50;;
36105;SDS011;22159;55.736;38.048;2023-03-23T04:05:15;7.35;;;3.55;;
36105;SDS011;22159;55.736;38.048;2023-03-23T04:07:41;6.22;;;3.40;;
36105;SDS011;22159;55.736;38.048;2023-03-23T04:10:10;7.10;;;3.30;;
36105;SDS011;22159;55.736;38.048;2023-03-23T04:12:38;5.88;;;3.00;;
36105;SDS011;22159;55.736;38.048;2023-03-23T04:15:04;5.82;;;2.50;;
36105;SDS011;22159;55.736;38.048;2023-03-23T04:17:31;5.60;;;2.40;;
36105;SDS011;22159;55.736;38.048;2023-03-23T04:19:57;4.50;;;2.20;;
36105;SDS011;22159;55.736;38.048;2023-03-23T04:22:25;5.78;;;2.20;;
36105;SDS011;22159;55.736;38.048;2023-03-23T04:24:55;6.80;;;2.45;;
36105;SDS011;22159;55.736;38.048;2023-03-23T04:27:23;6.03;;;2.30;;
36105;SDS011;22159;55.736;38.048;2023-03-23T04:29:49;5.07;;;1.95;;
36105;SDS011;22159;55.736;38.048;2023-03-23T04:32:16;4.53;;;1.95;;
36105;SDS011;22159;55.736;38.048;2023-03-23T04:34:45;4.63;;;2.28;;
36105;SDS011;22159;55.736;38.048;2023-03-23T04:37:11;3.15;;;1.65;;
36105;SDS011;22159;55.736;38.048;2023-03-23T04:39:38;3.38;;;2.00;;
36105;SDS011;22159;55.736;38.048;2023-03-23T04:42:05;3.45;;;1.70;;
36105;SDS011;22159;55.736;38.048;2023-03-23T04:44:31;3.80;;;1.65;;
36105;SDS011;22159;55.736;38.048;2023-03-23T04:46:59;3.33;;;1.50;;
36105;SDS011;22159;55.736;38.048;2023-03-23T04:49:26;2.35;;;1.55;;
36105;SDS011;22159;55.736;38.048;2023-03-23T04:51:55;4.10;;;1.70;;
36105;SDS011;22159;55.736;38.048;2023-03-23T04:54:21;3.72;;;1.55;;
36105;SDS011;22159;55.736;38.048;2023-03-23T04:56:47;6.28;;;1.80;;
36105;SDS011;22159;55.736;38.048;2023-03-23T04:59:13;3.55;;;1.60;;
36105;SDS011;22159;55.736;38.048;2023-03-23T05:01:40;2.60;;;1.25;;
36105;SDS011;22159;55.736;38.048;2023-03-23T05:04:10;3.20;;;1.52;;
36105;SDS011;22159;55.736;38.048;2023-03-23T05:06:41;2.78;;;1.52;;
36105;SDS011;22159;55.736;38.048;2023-03-23T05:09:10;2.72;;;1.45;;
36105;SDS011;22159;55.736;38.048;2023-03-23T05:11:36;2.83;;;1.40;;
36105;SDS011;22159;55.736;38.048;2023-03-23T05:14:05;2.58;;;1.20;;
36105;SDS011;22159;55.736;38.048;2023-03-23T05:16:32;1.70;;;1.23;;
36105;SDS011;22159;55.736;38.048;2023-03-23T05:18:58;3.47;;;1.10;;
36105;SDS011;22159;55.736;38.048;2023-03-23T05:21:24;2.10;;;1.33;;
36105;SDS011;22159;55.736;38.048;2023-03-23T05:23:51;2.25;;;1.23;;
36105;SDS011;22159;55.736;38.048;2023-03-23T05:26:22;2.78;;;1.27;;
36105;SDS011;22159;55.736;38.048;2023-03-23T05:28:54;1.98;;;1.20;;
36105;SDS011;22159;55.736;38.048;2023-03-23T05:31:21;2.15;;;1.27;;
36105;SDS011;22159;55.736;38.048;2023-03-23T05:33:48;2.67;;;1.48;;
36105;SDS011;22159;55.736;38.048;2023-03-23T05:36:14;1.73;;;1.08;;
36105;SDS011;22159;55.736;38.048;2023-03-23T05:38:40;2.90;;;1.50;;
36105;SDS011;22159;55.736;38.048;2023-03-23T05:41:13;2.50;;;1.23;;
36105;SDS011;22159;55.736;38.048;2023-03-23T05:43:39;3.70;;;1.40;;
36105;SDS011;22159;55.736;38.048;2023-03-23T05:46:05;3.25;;;1.20;;
36105;SDS011;22159;55.736;38.048;2023-03-23T05:48:32;1.70;;;1.33;;
36105;SDS011;22159;55.736;38.048;2023-03-23T05:50:58;2.00;;;1.02;;
36105;SDS011;22159;55.736;38.048;2023-03-23T05:53:24;2.40;;;1.10;;
36105;SDS011;22159;55.736;38.048;2023-03-23T05:55:51;3.08;;;1.27;;
36105;SDS011;22159;55.736;38.048;2023-03-23T05:58:17;3.38;;;1.15;;
36105;SDS011;22159;55.736;38.048;2023-03-23T06:00:44;1.90;;;1.00;;
36105;SDS011;22159;55.736;38.048;2023-03-23T06:03:11;1.63;;;1.30;;
36105;SDS011;22159;55.736;38.048;2023-03-23T06:05:44;1.95;;;1.05;;
36105;SDS011;22159;55.736;38.048;2023-03-23T06:08:10;3.33;;;1.10;;
36105;SDS011;22159;55.736;38.048;2023-03-23T06:10:37;1.60;;;1.10;;
36105;SDS011;22159;55.736;38.048;2023-03-23T06:13:03;2.08;;;1.40;;
36105;SDS011;22159;55.736;38.048;2023-03-23T06:15:30;3.50;;;1.30;;
36105;SDS011;22159;55.736;38.048;2023-03-23T06:18:00;2.00;;;1.20;;
36105;SDS011;22159;55.736;38.048;2023-03-23T06:20:26;2.25;;;1.20;;
36105;SDS011;22159;55.736;38.048;2023-03-23T06:22:52;2.38;;;1.30;;
36105;SDS011;22159;55.736;38.048;2023-03-23T06:25:18;2.47;;;1.40;;
36105;SDS011;22159;55.736;38.048;2023-03-23T06:27:44;4.00;;;1.13;;
36105;SDS011;22159;55.736;38.048;2023-03-23T06:30:11;2.67;;;1.30;;
36105;SDS011;22159;55.736;38.048;2023-03-23T06:32:39;2.33;;;1.38;;
36105;SDS011;22159;55.736;38.048;2023-03-23T06:35:06;1.85;;;1.40;;
36105;SDS011;22159;55.736;38.048;2023-03-23T06:37:34;2.25;;;1.20;;
36105;SDS011;22159;55.736;38.048;2023-03-23T06:40:00;1.90;;;1.10;;
36105;SDS011;22159;55.736;38.048;2023-03-23T06:42:26;3.35;;;1.40;;
36105;SDS011;22159;55.736;38.048;2023-03-23T06:44:52;1.42;;;1.20;;
36105;SDS011;22159;55.736;38.048;2023-03-23T06:47:21;2.17;;;1.30;;
36105;SDS011;22159;55.736;38.048;2023-03-23T06:49:48;2.42;;;1.25;;
36105;SDS011;22159;55.736;38.048;2023-03-23T06:52:14;3.75;;;1.30;;
36105;SDS011;22159;55.736;38.048;2023-03-23T06:54:40;1.85;;;1.10;;
36105;SDS011;22159;55.736;38.048;2023-03-23T06:57:07;1.73;;;1.20;;
36105;SDS011;22159;55.736;38.048;2023-03-23T06:59:33;2.03;;;1.25;;
36105;SDS011;22159;55.736;38.048;2023-03-23T07:01:59;2.70;;;1.60;;
36105;SDS011;22159;55.736;38.048;2023-03-23T07:04:25;1.55;;;1.17;;
36105;SDS011;22159;55.736;38.048;2023-03-23T07:06:51;1.65;;;1.20;;
36105;SDS011;22159;55.736;38.048;2023-03-23T07:09:17;2.00;;;1.48;;
36105;SDS011;22159;55.736;38.048;2023-03-23T07:11:43;2.70;;;1.27;;
36105;SDS011;22159;55.736;38.048;2023-03-23T07:14:10;1.98;;;1.27;;
36105;SDS011;22159;55.736;38.048;2023-03-23T07:16:36;7.03;;;1.30;;
36105;SDS011;22159;55.736;38.048;2023-03-23T07:19:03;2.17;;;1.42;;
36105;SDS011;22159;55.736;38.048;2023-03-23T07:21:29;1.35;;;1.20;;
36105;SDS011;22159;55.736;38.048;2023-03-23T07:23:55;1.75;;;1.17;;
36105;SDS011;22159;55.736;38.048;2023-03-23T07:26:21;1.55;;;1.30;;
36105;SDS011;22159;55.736;38.048;2023-03-23T07:28:48;1.40;;;1.30;;
36105;SDS011;22159;55.736;38.048;2023-03-23T07:31:14;1.50;;;1.10;;
36105;SDS011;22159;55.736;38.048;2023-03-23T07:33:40;3.03;;;1.35;;
36105;SDS011;22159;55.736;38.048;2023-03-23T07:36:06;2.13;;;1.10;;
36105;SDS011;22159;55.736;38.048;2023-03-23T07:38:33;2.08;;;1.38;;
36105;SDS011;22159;55.736;38.048;2023-03-23T07:40:59;1.88;;;1.40;;
36105;SDS011;22159;55.736;38.048;2023-03-23T07:43:25;2.25;;;1.42;;
36105;SDS011;22159;55.736;38.048;2023-03-23T07:45:52;3.13;;;1.60;;
36105;SDS011;22159;55.736;38.048;2023-03-23T07:48:18;3.00;;;1.48;;
36105;SDS011;22159;55.736;38.048;2023-03-23T07:50:44;2.55;;;1.50;;
36105;SDS011;22159;55.736;38.048;2023-03-23T07:53:10;2.75;;;1.27;;
36105;SDS011;22159;55.736;38.048;2023-03-23T07:55:37;3.00;;;1.50;;
36105;SDS011;22159;55.736;38.048;2023-03-23T07:58:03;2.45;;;1.40;;
36105;SDS011;22159;55.736;38.048;2023-03-23T08:00:29;4.43;;;1.60;;
36105;SDS011;22159;55.736;38.048;2023-03-23T08:02:56;2.35;;;1.63;;
36105;SDS011;22159;55.736;38.048;2023-03-23T08:05:23;4.03;;;1.25;;
36105;SDS011;22159;55.736;38.048;2023-03-23T08:07:51;2.17;;;1.40;;
36105;SDS011;22159;55.736;38.048;2023-03-23T08:10:18;6.97;;;1.50;;
36105;SDS011;22159;55.736;38.048;2023-03-23T08:12:46;2.80;;;1.40;;
36105;SDS011;22159;55.736;38.048;2023-03-23T08:15:16;3.55;;;1.40;;
36105;SDS011;22159;55.736;38.048;2023-03-23T08:17:42;2.15;;;1.40;;
36105;SDS011;22159;55.736;38.048;2023-03-23T08:20:09;1.73;;;1.40;;
36105;SDS011;22159;55.736;38.048;2023-03-23T08:22:41;1.70;;;1.38;;
36105;SDS011;22159;55.736;38.048;2023-03-23T08:25:08;1.92;;;1.20;;
36105;SDS011;22159;55.736;38.048;2023-03-23T08:27:34;1.70;;;1.40;;
36105;SDS011;22159;55.736;38.048;2023-03-23T08:30:00;3.05;;;1.42;;
36105;SDS011;22159;55.736;38.048;2023-03-23T08:32:26;3.33;;;1.42;;
36105;SDS011;22159;55.736;38.048;2023-03-23T08:34:52;2.33;;;1.30;;
36105;SDS011;22159;55.736;38.048;2023-03-23T08:37:19;1.70;;;1.33;;
36105;SDS011;22159;55.736;38.048;2023-03-23T08:39:45;1.65;;;1.55;;
36105;SDS011;22159;55.736;38.048;2023-03-23T08:42:11;2.60;;;1.40;;
36105;SDS011;22159;55.736;38.048;2023-03-23T08:44:37;1.88;;;1.50;;
36105;SDS011;22159;55.736;38.048;2023-03-23T08:47:03;2.40;;;1.40;;
36105;SDS011;22159;55.736;38.048;2023-03-23T08:49:31;2.30;;;1.50;;
36105;SDS011;22159;55.736;38.048;2023-03-23T08:51:59;2.03;;;1.50;;
36105;SDS011;22159;55.736;38.048;2023-03-23T08:54:25;2.25;;;1.50;;
36105;SDS011;22159;55.736;38.048;2023-03-23T08:56:51;2.33;;;1.40;;
36105;SDS011;22159;55.736;38.048;2023-03-23T08:59:17;2.40;;;1.33;;
36105;SDS011;22159;55.736;38.048;2023-03-23T09:01:43;3.08;;;1.63;;
36105;SDS011;22159;55.736;38.048;2023-03-23T09:04:10;2.00;;;1.33;;
36105;SDS011;22159;55.736;38.048;2023-03-23T09:06:36;1.48;;;1.25;;
36105;SDS011;22159;55.736;38.048;2023-03-23T09:09:03;1.33;;;1.10;;
36105;SDS011;22159;55.736;38.048;2023-03-23T09:11:34;2.22;;;1.50;;
36105;SDS011;22159;55.736;38.048;2023-03-23T09:14:00;1.70;;;1.50;;
36105;SDS011;22159;55.736;38.048;2023-03-23T09:16:27;2.10;;;1.70;;
36105;SDS011;22159;55.736;38.048;2023-03-23T09:18:53;1.60;;;1.30;;
36105;SDS011;22159;55.736;38.048;2023-03-23T09:21:21;1.63;;;1.40;;
36105;SDS011;22159;55.736;38.048;2023-03-23T09:23:48;1.85;;;1.20;;
36105;SDS011;22159;55.736;38.048;2023-03-23T09:26:14;1.70;;;1.50;;
36105;SDS011;22159;55.736;38.048;2023-03-23T09:28:40;1.40;;;1.30;;
36105;SDS011;22159;55.736;38.048;2023-03-23T09:31:09;1.70;;;1.25;;
36105;SDS011;22159;55.736;38.048;2023-03-23T09:33:36;1.73;;;1.10;;
36105;SDS011;22159;55.736;38.048;2023-03-23T09:36:02;2.22;;;1.67;;
36105;SDS011;22159;55.736;38.048;2023-03-23T09:38:30;2.00;;;1.40;;
36105;SDS011;22159;55.736;38.048;2023-03-23T09:48:57;2.00;;;1.20;;
36105;SDS011;22159;55.736;38.048;2023-03-23T09:54:18;2.65;;;1.30;;
36105;SDS011;22159;55.736;38.048;2023-03-23T09:56:45;2.30;;;1.30;;
36105;SDS011;22159;55.736;38.048;2023-03-23T10:02:17;2.40;;;1.25;;
36105;SDS011;22159;55.736;38.048;2023-03-23T10:04:45;1.95;;;1.25;;
36105;SDS011;22159;55.736;38.048;2023-03-23T10:09:38;2.22;;;1.30;;
36105;SDS011;22159;55.736;38.048;2023-03-23T10:14:57;1.48;;;1.15;;
36105;SDS011;22159;55.736;38.048;2023-03-23T10:17:37;1.63;;;1.05;;
36105;SDS011;22159;55.736;38.048;2023-03-23T10:20:14;2.33;;;1.38;;
36105;SDS011;22159;55.736;38.048;2023-03-23T10:22:46;1.80;;;1.00;;
36105;SDS011;22159;55.736;38.048;2023-03-23T10:25:16;3.17;;;1.30;;
36105;SDS011;22159;55.736;38.048;2023-03-23T10:30:30;3.25;;;1.23;;
36105;SDS011;22159;55.736;38.048;2023-03-23T10:41:31;2.60;;;1.10;;
36105;SDS011;22159;55.736;38.048;2023-03-23T10:43:57;3.13;;;1.33;;
36105;SDS011;22159;55.736;38.048;2023-03-23T10:48:53;2.88;;;1.02;;
36105;SDS011;22159;55.736;38.048;2023-03-23T10:51:22;1.20;;;1.00;;
36105;SDS011;22159;55.736;38.048;2023-03-23T10:53:51;2.00;;;1.10;;
36105;SDS011;22159;55.736;38.048;2023-03-23T10:58:47;3.80;;;1.10;;
36105;SDS011;22159;55.736;38.048;2023-03-23T11:01:13;1.65;;;0.90;;
36105;SDS011;22159;55.736;38.048;2023-03-23T11:03:43;1.42;;;1.23;;
36105;SDS011;22159;55.736;38.048;2023-03-23T11:06:19;1.77;;;1.10;;
36105;SDS011;22159;55.736;38.048;2023-03-23T11:08:49;2.30;;;1.17;;
36105;SDS011;22159;55.736;38.048;2023-03-23T11:11:24;6.43;;;1.33;;
36105;SDS011;22159;55.736;38.048;2023-03-23T11:13:56;1.42;;;1.10;;
36105;SDS011;22159;55.736;38.048;2023-03-23T11:16:26;1.27;;;0.95;;
36105;SDS011;22159;55.736;38.048;2023-03-23T11:18:53;1.77;;;1.05;;
36105;SDS011;22159;55.736;38.048;2023-03-23T11:21:20;1.17;;;1.08;;
36105;SDS011;22159;55.736;38.048;2023-03-23T11:23:48;2.08;;;0.98;;
36105;SDS011;22159;55.736;38.048;2023-03-23T11:26:22;3.10;;;1.35;;
36105;SDS011;22159;55.736;38.048;2023-03-23T11:31:19;2.20;;;1.13;;
36105;SDS011;22159;55.736;38.048;2023-03-23T11:33:50;2.00;;;0.88;;
36105;SDS011;22159;55.736;38.048;2023-03-23T11:36:17;1.95;;;1.17;;
36105;SDS011;22159;55.736;38.048;2023-03-23T11:38:44;1.55;;;1.30;;
36105;SDS011;22159;55.736;38.048;2023-03-23T11:41:11;1.27;;;1.00;;
36105;SDS011;22159;55.736;38.048;2023-03-23T11:43:40;1.58;;;0.90;;
36105;SDS011;22159;55.736;38.048;2023-03-23T11:48:57;2.38;;;1.15;;
36105;SDS011;22159;55.736;38.048;2023-03-23T11:56:43;0.95;;;0.90;;
36105;SDS011;22159;55.736;38.048;2023-03-23T11:59:11;1.33;;;0.85;;
36105;SDS011;22159;55.736;38.048;2023-03-23T12:01:50;1.33;;;1.00;;
36105;SDS011;22159;55.736;38.048;2023-03-23T12:11:58;2.15;;;1.00;;
36105;SDS011;22159;55.736;38.048;2023-03-23T12:19:39;1.08;;;0.98;;
36105;SDS011;22159;55.736;38.048;2023-03-23T12:35:26;1.35;;;0.95;;
36105;SDS011;22159;55.736;38.048;2023-03-23T12:43:51;1.13;;;0.90;;
36105;SDS011;22159;55.736;38.048;2023-03-23T12:48:55;1.05;;;0.80;;
36105;SDS011;22159;55.736;38.048;2023-03-23T12:54:11;1.58;;;0.77;;
36105;SDS011;22159;55.736;38.048;2023-03-23T13:01:51;2.85;;;0.95;;
36105;SDS011;22159;55.736;38.048;2023-03-23T13:04:20;4.90;;;0.70;;
36105;SDS011;22159;55.736;38.048;2023-03-23T13:06:46;1.10;;;0.90;;
36105;SDS011;22159;55.736;38.048;2023-03-23T13:09:24;1.23;;;0.82;;
36105;SDS011;22159;55.736;38.048;2023-03-23T13:11:53;1.52;;;1.00;;
36105;SDS011;22159;55.736;38.048;2023-03-23T13:24:31;1.13;;;1.00;;
36105;SDS011;22159;55.736;38.048;2023-03-23T13:26:59;3.40;;;0.90;;
36105;SDS011;22159;55.736;38.048;2023-03-23T13:29:26;1.88;;;1.00;;
36105;SDS011;22159;55.736;38.048;2023-03-23T13:32:11;1.02;;;0.77;;
36105;SDS011;22159;55.736;38.048;2023-03-23T13:34:38;2.90;;;0.98;;
36105;SDS011;22159;55.736;38.048;2023-03-23T13:37:06;1.23;;;0.70;;
36105;SDS011;22159;55.736;38.048;2023-03-23T13:47:16;2.83;;;0.95;;
36105;SDS011;22159;55.736;38.048;2023-03-23T13:49:50;1.92;;;0.95;;
36105;SDS011;22159;55.736;38.048;2023-03-23T13:52:18;1.65;;;0.80;;
36105;SDS011;22159;55.736;38.048;2023-03-23T13:59:59;1.70;;;0.90;;
36105;SDS011;22159;55.736;38.048;2023-03-23T14:02:38;2.33;;;1.20;;
36105;SDS011;22159;55.736;38.048;2023-03-23T14:05:23;3.88;;;1.10;;
36105;SDS011;22159;55.736;38.048;2023-03-23T14:08:02;1.92;;;1.05;;
36105;SDS011;22159;55.736;38.048;2023-03-23T14:13:38;1.95;;;0.93;;
36105;SDS011;22159;55.736;38.048;2023-03-23T14:16:01;3.92;;;0.98;;
36105;SDS011;22159;55.736;38.048;2023-03-23T14:18:30;1.52;;;0.98;;
36105;SDS011;22159;55.736;38.048;2023-03-23T14:20:57;1.48;;;1.13;;
36105;SDS011;22159;55.736;38.048;2023-03-23T14:23:23;2.72;;;1.08;;
36105;SDS011;22159;55.736;38.048;2023-03-23T14:25:56;1.83;;;1.10;;
36105;SDS011;22159;55.736;38.048;2023-03-23T14:28:22;2.25;;;1.00;;
36105;SDS011;22159;55.736;38.048;2023-03-23T14:30:52;1.80;;;0.82;;
36105;SDS011;22159;55.736;38.048;2023-03-23T14:33:19;1.67;;;1.03;;
36105;SDS011;22159;55.736;38.048;2023-03-23T14:35:45;2.17;;;0.90;;
36105;SDS011;22159;55.736;38.048;2023-03-23T14:38:15;4.03;;;1.17;;
36105;SDS011;22159;55.736;38.048;2023-03-23T14:40:43;2.08;;;1.23;;
36105;SDS011;22159;55.736;38.048;2023-03-23T14:43:10;1.13;;;0.90;;
36105;SDS011;22159;55.736;38.048;2023-03-23T14:45:38;1.10;;;1.00;;
36105;SDS011;22159;55.736;38.048;2023-03-23T14:48:05;1.38;;;1.00;;
36105;SDS011;22159;55.736;38.048;2023-03-23T14:50:39;1.50;;;1.05;;
36105;SDS011;22159;55.736;38.048;2023-03-23T14:53:20;2.60;;;1.20;;
36105;SDS011;22159;55.736;38.048;2023-03-23T14:55:47;1.75;;;1.35;;
36105;SDS011;22159;55.736;38.048;2023-03-23T14:58:14;1.83;;;1.08;;
36105;SDS011;22159;55.736;38.048;2023-03-23T15:00:46;2.33;;;1.17;;
36105;SDS011;22159;55.736;38.048;2023-03-23T15:03:14;3.88;;;1.52;;
36105;SDS011;22159;55.736;38.048;2023-03-23T15:05:46;2.95;;;1.13;;
36105;SDS011;22159;55.736;38.048;2023-03-23T15:08:34;2.03;;;1.13;;
36105;SDS011;22159;55.736;38.048;2023-03-23T15:11:22;1.83;;;1.00;;
36105;SDS011;22159;55.736;38.048;2023-03-23T15:13:46;2.83;;;1.10;;
36105;SDS011;22159;55.736;38.048;2023-03-23T15:16:19;3.35;;;1.30;;
36105;SDS011;22159;55.736;38.048;2023-03-23T15:18:48;2.22;;;1.15;;
36105;SDS011;22159;55.736;38.048;2023-03-23T15:21:32;3.75;;;1.50;;
36105;SDS011;22159;55.736;38.048;2023-03-23T15:24:02;2.72;;;1.27;;
36105;SDS011;22159;55.736;38.048;2023-03-23T15:26:31;2.38;;;1.02;;
36105;SDS011;22159;55.736;38.048;2023-03-23T15:29:01;2.65;;;1.10;;
36105;SDS011;22159;55.736;38.048;2023-03-23T15:31:29;2.28;;;1.30;;
36105;SDS011;22159;55.736;38.048;2023-03-23T15:33:57;2.65;;;1.42;;
36105;SDS011;22159;55.736;38.048;2023-03-23T15:36:25;2.40;;;1.20;;
36105;SDS011;22159;55.736;38.048;2023-03-23T15:38:51;3.10;;;0.93;;
36105;SDS011;22159;55.736;38.048;2023-03-23T15:41:24;1.85;;;1.00;;
36105;SDS011;22159;55.736;38.048;2023-03-23T15:43:57;29.85;;;7.95;;
36105;SDS011;22159;55.736;38.048;2023-03-23T15:46:25;16.67;;;6.18;;
36105;SDS011;22159;55.736;38.048;2023-03-23T15:49:12;14.30;;;5.03;;
36105;SDS011;22159;55.736;38.048;2023-03-23T15:51:39;13.27;;;5.00;;
36105;SDS011;22159;55.736;38.048;2023-03-23T15:54:05;11.00;;;3.78;;
36105;SDS011;22159;55.736;38.048;2023-03-23T15:56:33;11.73;;;4.07;;
36105;SDS011;22159;55.736;38.048;2023-03-23T15:59:00;13.07;;;4.20;;
36105;SDS011;22159;55.736;38.048;2023-03-23T16:01:26;12.88;;;3.92;;
36105;SDS011;22159;55.736;38.048;2023-03-23T16:03:55;16.90;;;4.65;;
36105;SDS011;22159;55.736;38.048;2023-03-23T16:06:23;12.18;;;4.45;;
36105;SDS011;22159;55.736;38.048;2023-03-23T16:08:49;13.77;;;4.80;;
36105;SDS011;22159;55.736;38.048;2023-03-23T16:11:17;12.10;;;4.07;;
36105;SDS011;22159;55.736;38.048;2023-03-23T16:13:43;14.40;;;4.93;;
36105;SDS011;22159;55.736;38.048;2023-03-23T16:16:17;13.18;;;4.43;;
36105;SDS011;22159;55.736;38.048;2023-03-23T16:18:43;12.30;;;4.72;;
36105;SDS011;22159;55.736;38.048;2023-03-23T16:21:09;15.00;;;4.82;;
36105;SDS011;22159;55.736;38.048;2023-03-23T16:23:36;12.50;;;4.68;;
36105;SDS011;22159;55.736;38.048;2023-03-23T16:26:02;17.30;;;5.18;;
36105;SDS011;22159;55.736;38.048;2023-03-23T16:28:28;13.93;;;4.30;;
36105;SDS011;22159;55.736;38.048;2023-03-23T16:30:54;11.75;;;4.40;;
36105;SDS011;22159;55.736;38.048;2023-03-23T16:33:20;10.73;;;3.95;;
36105;SDS011;22159;55.736;38.048;2023-03-23T16:35:47;11.10;;;4.53;;
36105;SDS011;22159;55.736;38.048;2023-03-23T16:38:13;12.68;;;4.20;;
36105;SDS011;22159;55.736;38.048;2023-03-23T16:40:41;12.85;;;4.30;;
36105;SDS011;22159;55.736;38.048;2023-03-23T16:43:08;9.15;;;3.80;;
36105;SDS011;22159;55.736;38.048;2023-03-23T16:45:35;10.13;;;3.70;;
36105;SDS011;22159;55.736;38.048;2023-03-23T16:48:01;8.10;;;3.33;;
36105;SDS011;22159;55.736;38.048;2023-03-23T16:50:29;11.00;;;3.15;;
36105;SDS011;22159;55.736;38.048;2023-03-23T16:52:55;10.48;;;3.15;;
36105;SDS011;22159;55.736;38.048;2023-03-23T16:55:22;11.80;;;3.47;;
36105;SDS011;22159;55.736;38.048;2023-03-23T16:57:50;7.53;;;3.33;;
36105;SDS011;22159;55.736;38.048;2023-03-23T17:00:16;8.63;;;2.85;;
36105;SDS011;22159;55.736;38.048;2023-03-23T17:02:47;7.38;;;2.83;;